sensor_id;sensor_type;location;lat;lon;timestamp;P1;durP1;ratioP1;P2;durP2;ratioP2
6442;SDS011;3254;47.372;8.512;2022-09-03T00:00:17;10.60;;;7.27;;
6442;SDS011;3254;47.372;8.512;2022-09-03T00:02:51;7.80;;;7.00;;
6442;SDS011;3254;47.372;8.512;2022-09-03T00:05:39;8.00;;;7.40;;
6442;SDS011;3254;47.372;8.512;2022-09-03T00:13:43;8.20;;;7.43;;
6442;SDS011;3254;47.372;8.512;2022-09-03T00:16:14;9.20;;;7.67;;
6442;SDS011;3254;47.372;8.512;2022-09-03T00:18:54;11.83;;;7.83;;
6442;SDS011;3254;47.372;8.512;2022-09-03T00:21:38;7.70;;;6.90;;
6442;SDS011;3254;47.372;8.512;2022-09-03T00:24:10;8.20;;;7.47;;
6442;SDS011;3254;47.372;8.512;2022-09-03T00:26:39;9.50;;;7.30;;
6442;SDS011;3254;47.372;8.512;2022-09-03T00:29:15;7.73;;;7.03;;
6442;SDS011;3254;47.372;8.512;2022-09-03T00:31:46;8.93;;;6.90;;
6442;SDS011;3254;47.372;8.512;2022-09-03T00:34:19;9.17;;;8.30;;
6442;SDS011;3254;47.372;8.512;2022-09-03T00:36:50;58.97;;;13.13;;
6442;SDS011;3254;47.372;8.512;2022-09-03T00:39:34;26.07;;;14.03;;
6442;SDS011;3254;47.372;8.512;2022-09-03T00:58:48;17.30;;;14.13;;
6442;SDS011;3254;47.372;8.512;2022-09-03T01:01:23;13.10;;;11.80;;
6442;SDS011;3254;47.372;8.512;2022-09-03T01:10:03;23.03;;;15.20;;
6442;SDS011;3254;47.372;8.512;2022-09-03T01:13:04;31.07;;;19.80;;
6442;SDS011;3254;47.372;8.512;2022-09-03T01:16:04;23.60;;;18.83;;
6442;SDS011;3254;47.372;8.512;2022-09-03T01:18:36;26.60;;;18.23;;
6442;SDS011;3254;47.372;8.512;2022-09-03T01:27:13;17.00;;;14.40;;
6442;SDS011;3254;47.372;8.512;2022-09-03T01:30:07;15.00;;;11.80;;
6442;SDS011;3254;47.372;8.512;2022-09-03T01:35:36;12.63;;;10.90;;
6442;SDS011;3254;47.372;8.512;2022-09-03T01:38:32;10.60;;;9.60;;
6442;SDS011;3254;47.372;8.512;2022-09-03T01:41:13;16.33;;;12.30;;
6442;SDS011;3254;47.372;8.512;2022-09-03T01:49:53;18.23;;;14.73;;
6442;SDS011;3254;47.372;8.512;2022-09-03T01:52:39;20.97;;;16.60;;
6442;SDS011;3254;47.372;8.512;2022-09-03T01:58:20;18.93;;;15.27;;
6442;SDS011;3254;47.372;8.512;2022-09-03T02:01:02;19.03;;;14.90;;
6442;SDS011;3254;47.372;8.512;2022-09-03T02:03:34;21.30;;;14.13;;
6442;SDS011;3254;47.372;8.512;2022-09-03T02:06:02;15.93;;;12.87;;
6442;SDS011;3254;47.372;8.512;2022-09-03T02:08:29;11.40;;;10.30;;
6442;SDS011;3254;47.372;8.512;2022-09-03T02:10:56;15.67;;;11.67;;
6442;SDS011;3254;47.372;8.512;2022-09-03T02:15:58;12.03;;;10.60;;
6442;SDS011;3254;47.372;8.512;2022-09-03T02:18:28;8.40;;;7.20;;
6442;SDS011;3254;47.372;8.512;2022-09-03T02:20:57;7.97;;;7.27;;
6442;SDS011;3254;47.372;8.512;2022-09-03T02:23:24;8.30;;;7.60;;
6442;SDS011;3254;47.372;8.512;2022-09-03T02:25:54;13.33;;;9.07;;
6442;SDS011;3254;47.372;8.512;2022-09-03T02:28:21;10.30;;;8.70;;
6442;SDS011;3254;47.372;8.512;2022-09-03T02:30:47;7.37;;;6.73;;
6442;SDS011;3254;47.372;8.512;2022-09-03T02:33:13;7.67;;;7.07;;
6442;SDS011;3254;47.372;8.512;2022-09-03T02:35:40;7.50;;;6.80;;
6442;SDS011;3254;47.372;8.512;2022-09-03T02:38:10;6.90;;;6.30;;
6442;SDS011;3254;47.372;8.512;2022-09-03T02:40:39;6.90;;;5.83;;
6442;SDS011;3254;47.372;8.512;2022-09-03T02:43:05;8.30;;;5.83;;
6442;SDS011;3254;47.372;8.512;2022-09-03T02:45:35;5.77;;;5.47;;
6442;SDS011;3254;47.372;8.512;2022-09-03T02:48:05;6.50;;;6.00;;
6442;SDS011;3254;47.372;8.512;2022-09-03T02:50:39;7.27;;;6.67;;
6442;SDS011;3254;47.372;8.512;2022-09-03T02:53:06;7.33;;;6.63;;
6442;SDS011;3254;47.372;8.512;2022-09-03T02:55:32;7.13;;;6.53;;
6442;SDS011;3254;47.372;8.512;2022-09-03T02:57:58;6.63;;;6.23;;
6442;SDS011;3254;47.372;8.512;2022-09-03T03:00:24;7.20;;;6.60;;
6442;SDS011;3254;47.372;8.512;2022-09-03T03:02:50;10.20;;;6.97;;
6442;SDS011;3254;47.372;8.512;2022-09-03T03:05:18;7.57;;;7.00;;
6442;SDS011;3254;47.372;8.512;2022-09-03T03:07:50;7.93;;;7.23;;
6442;SDS011;3254;47.372;8.512;2022-09-03T03:10:16;8.03;;;7.43;;
6442;SDS011;3254;47.372;8.512;2022-09-03T03:12:41;8.00;;;7.00;;
6442;SDS011;3254;47.372;8.512;2022-09-03T03:15:07;8.00;;;6.50;;
6442;SDS011;3254;47.372;8.512;2022-09-03T03:17:33;6.07;;;5.57;;
6442;SDS011;3254;47.372;8.512;2022-09-03T03:19:58;5.90;;;5.50;;
6442;SDS011;3254;47.372;8.512;2022-09-03T03:22:24;6.50;;;5.40;;
6442;SDS011;3254;47.372;8.512;2022-09-03T03:24:50;7.07;;;6.37;;
6442;SDS011;3254;47.372;8.512;2022-09-03T03:27:16;7.30;;;6.60;;
6442;SDS011;3254;47.372;8.512;2022-09-03T03:29:42;8.00;;;7.20;;
6442;SDS011;3254;47.372;8.512;2022-09-03T03:32:08;7.80;;;6.63;;
6442;SDS011;3254;47.372;8.512;2022-09-03T03:34:34;8.30;;;7.00;;
6442;SDS011;3254;47.372;8.512;2022-09-03T03:36:59;8.70;;;7.90;;
6442;SDS011;3254;47.372;8.512;2022-09-03T03:39:25;7.50;;;6.90;;
6442;SDS011;3254;47.372;8.512;2022-09-03T03:41:50;7.87;;;7.10;;
6442;SDS011;3254;47.372;8.512;2022-09-03T03:44:16;7.87;;;7.17;;
6442;SDS011;3254;47.372;8.512;2022-09-03T03:46:44;9.47;;;8.60;;
6442;SDS011;3254;47.372;8.512;2022-09-03T03:49:10;8.70;;;7.23;;
6442;SDS011;3254;47.372;8.512;2022-09-03T03:51:36;8.67;;;7.80;;
6442;SDS011;3254;47.372;8.512;2022-09-03T03:54:03;9.57;;;8.53;;
6442;SDS011;3254;47.372;8.512;2022-09-03T03:56:29;9.80;;;8.80;;
6442;SDS011;3254;47.372;8.512;2022-09-03T03:58:55;10.97;;;9.90;;
6442;SDS011;3254;47.372;8.512;2022-09-03T04:01:23;9.93;;;9.03;;
6442;SDS011;3254;47.372;8.512;2022-09-03T04:03:50;16.90;;;10.67;;
6442;SDS011;3254;47.372;8.512;2022-09-03T04:06:19;11.40;;;10.17;;
6442;SDS011;3254;47.372;8.512;2022-09-03T04:08:45;10.63;;;9.50;;
6442;SDS011;3254;47.372;8.512;2022-09-03T04:11:13;11.40;;;10.20;;
6442;SDS011;3254;47.372;8.512;2022-09-03T04:13:42;25.13;;;11.20;;
6442;SDS011;3254;47.372;8.512;2022-09-03T04:16:19;12.17;;;10.00;;
6442;SDS011;3254;47.372;8.512;2022-09-03T04:18:46;11.03;;;10.00;;
6442;SDS011;3254;47.372;8.512;2022-09-03T04:21:14;7.63;;;7.03;;
6442;SDS011;3254;47.372;8.512;2022-09-03T04:23:42;8.60;;;7.90;;
6442;SDS011;3254;47.372;8.512;2022-09-03T04:26:11;7.20;;;6.70;;
6442;SDS011;3254;47.372;8.512;2022-09-03T04:28:38;6.53;;;6.03;;
6442;SDS011;3254;47.372;8.512;2022-09-03T04:31:06;4.50;;;4.30;;
6442;SDS011;3254;47.372;8.512;2022-09-03T04:33:34;4.60;;;4.30;;
6442;SDS011;3254;47.372;8.512;2022-09-03T04:36:06;3.10;;;2.90;;
6442;SDS011;3254;47.372;8.512;2022-09-03T04:38:32;3.00;;;2.90;;
6442;SDS011;3254;47.372;8.512;2022-09-03T04:40:59;2.70;;;2.60;;
6442;SDS011;3254;47.372;8.512;2022-09-03T04:43:26;2.70;;;2.50;;
6442;SDS011;3254;47.372;8.512;2022-09-03T04:45:59;2.63;;;2.47;;
6442;SDS011;3254;47.372;8.512;2022-09-03T04:48:26;2.33;;;2.13;;
6442;SDS011;3254;47.372;8.512;2022-09-03T04:50:53;2.73;;;2.63;;
6442;SDS011;3254;47.372;8.512;2022-09-03T04:53:20;2.90;;;2.80;;
6442;SDS011;3254;47.372;8.512;2022-09-03T04:55:46;3.13;;;3.00;;
6442;SDS011;3254;47.372;8.512;2022-09-03T04:58:12;2.90;;;2.70;;
6442;SDS011;3254;47.372;8.512;2022-09-03T05:00:38;2.70;;;2.60;;
6442;SDS011;3254;47.372;8.512;2022-09-03T05:03:04;2.70;;;2.60;;
6442;SDS011;3254;47.372;8.512;2022-09-03T05:05:30;3.83;;;3.53;;
6442;SDS011;3254;47.372;8.512;2022-09-03T05:07:58;3.23;;;3.00;;
6442;SDS011;3254;47.372;8.512;2022-09-03T05:10:27;3.43;;;3.20;;
6442;SDS011;3254;47.372;8.512;2022-09-03T05:15:25;5.90;;;3.37;;
6442;SDS011;3254;47.372;8.512;2022-09-03T05:17:56;3.00;;;2.80;;
6442;SDS011;3254;47.372;8.512;2022-09-03T05:20:28;3.70;;;3.50;;
6442;SDS011;3254;47.372;8.512;2022-09-03T05:22:55;3.73;;;3.53;;
6442;SDS011;3254;47.372;8.512;2022-09-03T05:25:21;3.07;;;2.97;;
6442;SDS011;3254;47.372;8.512;2022-09-03T05:27:48;2.30;;;2.20;;
6442;SDS011;3254;47.372;8.512;2022-09-03T05:30:14;2.53;;;2.43;;
6442;SDS011;3254;47.372;8.512;2022-09-03T05:32:40;2.20;;;2.10;;
6442;SDS011;3254;47.372;8.512;2022-09-03T05:35:06;2.70;;;2.60;;
6442;SDS011;3254;47.372;8.512;2022-09-03T05:37:33;2.50;;;2.40;;
6442;SDS011;3254;47.372;8.512;2022-09-03T05:39:59;2.50;;;2.40;;
6442;SDS011;3254;47.372;8.512;2022-09-03T05:42:24;2.90;;;2.80;;
6442;SDS011;3254;47.372;8.512;2022-09-03T05:44:52;2.37;;;2.27;;
6442;SDS011;3254;47.372;8.512;2022-09-03T05:47:18;2.40;;;2.30;;
6442;SDS011;3254;47.372;8.512;2022-09-03T05:49:44;2.20;;;2.10;;
6442;SDS011;3254;47.372;8.512;2022-09-03T05:52:10;2.53;;;2.43;;
6442;SDS011;3254;47.372;8.512;2022-09-03T05:54:35;3.10;;;2.90;;
6442;SDS011;3254;47.372;8.512;2022-09-03T05:57:01;3.20;;;2.87;;
6442;SDS011;3254;47.372;8.512;2022-09-03T05:59:26;3.40;;;3.10;;
6442;SDS011;3254;47.372;8.512;2022-09-03T06:01:52;3.20;;;2.83;;
6442;SDS011;3254;47.372;8.512;2022-09-03T06:04:18;3.30;;;3.10;;
6442;SDS011;3254;47.372;8.512;2022-09-03T06:06:45;3.67;;;3.47;;
6442;SDS011;3254;47.372;8.512;2022-09-03T06:09:13;4.30;;;4.00;;
6442;SDS011;3254;47.372;8.512;2022-09-03T06:11:40;4.23;;;3.83;;
6442;SDS011;3254;47.372;8.512;2022-09-03T06:14:07;3.40;;;3.30;;
6442;SDS011;3254;47.372;8.512;2022-09-03T06:16:34;4.53;;;4.33;;
6442;SDS011;3254;47.372;8.512;2022-09-03T06:19:02;4.70;;;4.30;;
6442;SDS011;3254;47.372;8.512;2022-09-03T06:21:33;4.80;;;4.40;;
6442;SDS011;3254;47.372;8.512;2022-09-03T06:24:07;4.17;;;3.90;;
6442;SDS011;3254;47.372;8.512;2022-09-03T06:26:37;3.37;;;3.07;;
6442;SDS011;3254;47.372;8.512;2022-09-03T06:29:03;3.67;;;3.47;;
6442;SDS011;3254;47.372;8.512;2022-09-03T06:31:30;4.83;;;3.60;;
6442;SDS011;3254;47.372;8.512;2022-09-03T06:33:55;3.47;;;3.27;;
6442;SDS011;3254;47.372;8.512;2022-09-03T06:36:22;3.90;;;3.67;;
6442;SDS011;3254;47.372;8.512;2022-09-03T06:38:52;5.00;;;4.10;;
6442;SDS011;3254;47.372;8.512;2022-09-03T06:41:20;3.40;;;3.23;;
6442;SDS011;3254;47.372;8.512;2022-09-03T06:43:52;4.40;;;4.10;;
6442;SDS011;3254;47.372;8.512;2022-09-03T06:46:32;5.93;;;4.00;;
6442;SDS011;3254;47.372;8.512;2022-09-03T06:49:00;4.10;;;3.80;;
6442;SDS011;3254;47.372;8.512;2022-09-03T06:51:27;7.33;;;3.90;;
6442;SDS011;3254;47.372;8.512;2022-09-03T06:53:57;4.10;;;3.80;;
6442;SDS011;3254;47.372;8.512;2022-09-03T06:56:25;4.30;;;3.63;;
6442;SDS011;3254;47.372;8.512;2022-09-03T06:58:52;6.83;;;3.57;;
6442;SDS011;3254;47.372;8.512;2022-09-03T07:01:20;3.77;;;3.57;;
6442;SDS011;3254;47.372;8.512;2022-09-03T07:03:54;4.00;;;3.60;;
6442;SDS011;3254;47.372;8.512;2022-09-03T07:06:21;4.50;;;3.10;;
6442;SDS011;3254;47.372;8.512;2022-09-03T07:08:48;3.10;;;2.90;;
6442;SDS011;3254;47.372;8.512;2022-09-03T07:11:15;3.17;;;2.90;;
6442;SDS011;3254;47.372;8.512;2022-09-03T07:13:47;3.67;;;3.47;;
6442;SDS011;3254;47.372;8.512;2022-09-03T07:16:22;3.90;;;3.63;;
6442;SDS011;3254;47.372;8.512;2022-09-03T07:18:50;3.70;;;3.40;;
6442;SDS011;3254;47.372;8.512;2022-09-03T07:21:20;4.07;;;3.77;;
6442;SDS011;3254;47.372;8.512;2022-09-03T07:23:48;3.77;;;3.47;;
6442;SDS011;3254;47.372;8.512;2022-09-03T07:26:17;5.80;;;3.50;;
6442;SDS011;3254;47.372;8.512;2022-09-03T07:28:44;5.30;;;3.23;;
6442;SDS011;3254;47.372;8.512;2022-09-03T07:31:15;4.10;;;3.80;;
6442;SDS011;3254;47.372;8.512;2022-09-03T07:33:45;3.60;;;3.30;;
6442;SDS011;3254;47.372;8.512;2022-09-03T07:36:12;3.30;;;2.90;;
6442;SDS011;3254;47.372;8.512;2022-09-03T07:38:40;4.77;;;3.10;;
6442;SDS011;3254;47.372;8.512;2022-09-03T07:41:09;5.23;;;3.63;;
6442;SDS011;3254;47.372;8.512;2022-09-03T07:43:37;3.13;;;2.93;;
6442;SDS011;3254;47.372;8.512;2022-09-03T07:46:07;3.33;;;3.03;;
6442;SDS011;3254;47.372;8.512;2022-09-03T07:48:36;4.87;;;2.67;;
6442;SDS011;3254;47.372;8.512;2022-09-03T07:51:05;3.57;;;3.33;;
6442;SDS011;3254;47.372;8.512;2022-09-03T07:53:32;3.97;;;2.50;;
6442;SDS011;3254;47.372;8.512;2022-09-03T07:56:02;2.87;;;2.60;;
6442;SDS011;3254;47.372;8.512;2022-09-03T07:58:33;2.20;;;2.10;;
6442;SDS011;3254;47.372;8.512;2022-09-03T08:01:06;2.70;;;2.50;;
6442;SDS011;3254;47.372;8.512;2022-09-03T08:03:34;2.90;;;2.80;;
6442;SDS011;3254;47.372;8.512;2022-09-03T08:06:01;3.03;;;2.87;;
6442;SDS011;3254;47.372;8.512;2022-09-03T08:08:31;2.33;;;2.23;;
6442;SDS011;3254;47.372;8.512;2022-09-03T08:11:08;5.30;;;2.70;;
6442;SDS011;3254;47.372;8.512;2022-09-03T08:13:45;2.90;;;2.80;;
6442;SDS011;3254;47.372;8.512;2022-09-03T08:16:14;3.30;;;2.70;;
6442;SDS011;3254;47.372;8.512;2022-09-03T08:18:42;3.80;;;2.80;;
6442;SDS011;3254;47.372;8.512;2022-09-03T08:21:09;2.77;;;2.57;;
6442;SDS011;3254;47.372;8.512;2022-09-03T08:23:40;3.17;;;2.77;;
6442;SDS011;3254;47.372;8.512;2022-09-03T08:26:10;4.23;;;2.50;;
6442;SDS011;3254;47.372;8.512;2022-09-03T08:28:36;2.30;;;2.20;;
6442;SDS011;3254;47.372;8.512;2022-09-03T08:31:10;2.90;;;2.00;;
6442;SDS011;3254;47.372;8.512;2022-09-03T08:33:42;2.50;;;2.30;;
6442;SDS011;3254;47.372;8.512;2022-09-03T08:38:42;2.17;;;2.07;;
6442;SDS011;3254;47.372;8.512;2022-09-03T08:44:30;2.17;;;2.07;;
6442;SDS011;3254;47.372;8.512;2022-09-03T08:47:31;2.97;;;2.77;;
6442;SDS011;3254;47.372;8.512;2022-09-03T08:50:37;4.57;;;2.97;;
6442;SDS011;3254;47.372;8.512;2022-09-03T08:55:49;2.27;;;2.17;;
6442;SDS011;3254;47.372;8.512;2022-09-03T08:58:15;2.53;;;2.33;;
6442;SDS011;3254;47.372;8.512;2022-09-03T09:09:30;1.90;;;1.80;;
6442;SDS011;3254;47.372;8.512;2022-09-03T09:21:22;2.60;;;2.50;;
6442;SDS011;3254;47.372;8.512;2022-09-03T09:23:53;4.47;;;2.60;;
6442;SDS011;3254;47.372;8.512;2022-09-03T09:26:25;5.27;;;2.50;;
6442;SDS011;3254;47.372;8.512;2022-09-03T09:29:00;10.93;;;2.30;;
6442;SDS011;3254;47.372;8.512;2022-09-03T09:31:30;2.43;;;2.33;;
6442;SDS011;3254;47.372;8.512;2022-09-03T09:34:02;2.67;;;2.47;;
6442;SDS011;3254;47.372;8.512;2022-09-03T09:36:31;3.00;;;2.90;;
6442;SDS011;3254;47.372;8.512;2022-09-03T09:39:10;5.43;;;3.00;;
6442;SDS011;3254;47.372;8.512;2022-09-03T09:41:36;5.30;;;3.20;;
6442;SDS011;3254;47.372;8.512;2022-09-03T09:44:02;9.10;;;3.40;;
6442;SDS011;3254;47.372;8.512;2022-09-03T09:46:34;2.90;;;2.70;;
6442;SDS011;3254;47.372;8.512;2022-09-03T09:49:02;2.40;;;2.30;;
6442;SDS011;3254;47.372;8.512;2022-09-03T09:51:28;8.20;;;2.67;;
6442;SDS011;3254;47.372;8.512;2022-09-03T09:54:15;2.60;;;2.50;;
6442;SDS011;3254;47.372;8.512;2022-09-03T09:56:46;2.90;;;2.70;;
6442;SDS011;3254;47.372;8.512;2022-09-03T09:59:22;3.37;;;3.10;;
6442;SDS011;3254;47.372;8.512;2022-09-03T10:01:48;3.13;;;2.83;;
6442;SDS011;3254;47.372;8.512;2022-09-03T10:04:23;2.13;;;2.03;;
6442;SDS011;3254;47.372;8.512;2022-09-03T10:06:55;2.20;;;2.10;;
6442;SDS011;3254;47.372;8.512;2022-09-03T10:09:28;2.40;;;2.20;;
6442;SDS011;3254;47.372;8.512;2022-09-03T10:12:01;3.03;;;2.63;;
6442;SDS011;3254;47.372;8.512;2022-09-03T10:17:34;4.17;;;2.67;;
6442;SDS011;3254;47.372;8.512;2022-09-03T10:20:11;2.17;;;2.03;;
6442;SDS011;3254;47.372;8.512;2022-09-03T10:23:21;2.10;;;2.00;;
6442;SDS011;3254;47.372;8.512;2022-09-03T10:28:23;2.03;;;1.53;;
6442;SDS011;3254;47.372;8.512;2022-09-03T10:33:25;2.33;;;2.07;;
6442;SDS011;3254;47.372;8.512;2022-09-03T10:36:24;2.20;;;2.10;;
6442;SDS011;3254;47.372;8.512;2022-09-03T10:38:52;3.70;;;2.23;;
6442;SDS011;3254;47.372;8.512;2022-09-03T10:53:04;2.87;;;2.77;;
6442;SDS011;3254;47.372;8.512;2022-09-03T10:58:47;3.13;;;2.77;;
6442;SDS011;3254;47.372;8.512;2022-09-03T11:01:41;2.57;;;2.33;;
6442;SDS011;3254;47.372;8.512;2022-09-03T11:04:45;2.37;;;2.20;;
6442;SDS011;3254;47.372;8.512;2022-09-03T11:07:21;2.27;;;2.17;;
6442;SDS011;3254;47.372;8.512;2022-09-03T11:12:47;3.50;;;2.33;;
6442;SDS011;3254;47.372;8.512;2022-09-03T11:15:35;1.90;;;1.80;;
6442;SDS011;3254;47.372;8.512;2022-09-03T11:20:50;3.93;;;3.00;;
6442;SDS011;3254;47.372;8.512;2022-09-03T11:23:18;2.00;;;1.90;;
6442;SDS011;3254;47.372;8.512;2022-09-03T11:25:49;3.37;;;1.80;;
6442;SDS011;3254;47.372;8.512;2022-09-03T11:33:44;2.27;;;2.10;;
6442;SDS011;3254;47.372;8.512;2022-09-03T11:36:31;3.47;;;2.10;;
6442;SDS011;3254;47.372;8.512;2022-09-03T11:38:59;2.80;;;2.03;;
6442;SDS011;3254;47.372;8.512;2022-09-03T11:41:33;1.93;;;1.83;;
6442;SDS011;3254;47.372;8.512;2022-09-03T11:44:17;1.60;;;1.50;;
6442;SDS011;3254;47.372;8.512;2022-09-03T11:46:56;1.83;;;1.63;;
6442;SDS011;3254;47.372;8.512;2022-09-03T11:49:29;1.67;;;1.57;;
6442;SDS011;3254;47.372;8.512;2022-09-03T11:52:03;1.70;;;1.60;;
6442;SDS011;3254;47.372;8.512;2022-09-03T11:54:42;1.93;;;1.80;;
6442;SDS011;3254;47.372;8.512;2022-09-03T11:57:14;1.80;;;1.70;;
6442;SDS011;3254;47.372;8.512;2022-09-03T11:59:46;1.77;;;1.67;;
6442;SDS011;3254;47.372;8.512;2022-09-03T12:02:31;1.50;;;1.40;;
6442;SDS011;3254;47.372;8.512;2022-09-03T12:10:45;1.40;;;1.30;;
6442;SDS011;3254;47.372;8.512;2022-09-03T12:18:40;1.93;;;1.40;;
6442;SDS011;3254;47.372;8.512;2022-09-03T12:21:07;1.67;;;1.23;;
6442;SDS011;3254;47.372;8.512;2022-09-03T12:23:42;1.27;;;1.17;;
6442;SDS011;3254;47.372;8.512;2022-09-03T12:26:22;3.00;;;0.97;;
6442;SDS011;3254;47.372;8.512;2022-09-03T12:29:00;1.73;;;1.63;;
6442;SDS011;3254;47.372;8.512;2022-09-03T12:31:27;1.23;;;1.13;;
6442;SDS011;3254;47.372;8.512;2022-09-03T12:33:58;1.40;;;1.30;;
6442;SDS011;3254;47.372;8.512;2022-09-03T12:39:11;1.40;;;1.27;;
6442;SDS011;3254;47.372;8.512;2022-09-03T12:41:53;1.20;;;1.10;;
6442;SDS011;3254;47.372;8.512;2022-09-03T12:44:29;1.27;;;1.17;;
6442;SDS011;3254;47.372;8.512;2022-09-03T12:47:05;1.27;;;1.13;;
6442;SDS011;3254;47.372;8.512;2022-09-03T12:49:43;1.63;;;1.53;;
6442;SDS011;3254;47.372;8.512;2022-09-03T12:54:47;1.50;;;1.40;;
6442;SDS011;3254;47.372;8.512;2022-09-03T12:57:22;1.20;;;1.10;;
6442;SDS011;3254;47.372;8.512;2022-09-03T12:59:55;1.53;;;1.07;;
6442;SDS011;3254;47.372;8.512;2022-09-03T13:02:27;2.70;;;1.30;;
6442;SDS011;3254;47.372;8.512;2022-09-03T13:05:01;1.20;;;1.10;;
6442;SDS011;3254;47.372;8.512;2022-09-03T13:07:30;1.30;;;1.20;;
6442;SDS011;3254;47.372;8.512;2022-09-03T13:10:06;1.83;;;1.07;;
6442;SDS011;3254;47.372;8.512;2022-09-03T13:12:43;1.20;;;1.10;;
6442;SDS011;3254;47.372;8.512;2022-09-03T13:15:16;1.20;;;1.10;;
6442;SDS011;3254;47.372;8.512;2022-09-03T13:18:03;1.30;;;1.20;;
6442;SDS011;3254;47.372;8.512;2022-09-03T13:20:40;1.27;;;1.17;;
6442;SDS011;3254;47.372;8.512;2022-09-03T13:23:39;0.97;;;0.87;;
6442;SDS011;3254;47.372;8.512;2022-09-03T13:26:31;2.27;;;1.30;;
6442;SDS011;3254;47.372;8.512;2022-09-03T13:34:53;1.37;;;1.27;;
6442;SDS011;3254;47.372;8.512;2022-09-03T13:37:44;1.10;;;1.00;;
6442;SDS011;3254;47.372;8.512;2022-09-03T13:43:10;1.37;;;1.27;;
6442;SDS011;3254;47.372;8.512;2022-09-03T13:49:16;2.83;;;1.50;;
6442;SDS011;3254;47.372;8.512;2022-09-03T13:52:37;1.30;;;1.20;;
6442;SDS011;3254;47.372;8.512;2022-09-03T14:01:22;1.50;;;1.30;;
6442;SDS011;3254;47.372;8.512;2022-09-03T14:03:59;1.60;;;1.50;;
6442;SDS011;3254;47.372;8.512;2022-09-03T14:06:45;1.20;;;1.10;;
6442;SDS011;3254;47.372;8.512;2022-09-03T14:20:16;1.83;;;1.50;;
6442;SDS011;3254;47.372;8.512;2022-09-03T14:25:18;1.83;;;1.40;;
6442;SDS011;3254;47.372;8.512;2022-09-03T14:27:46;1.97;;;1.50;;
6442;SDS011;3254;47.372;8.512;2022-09-03T14:48:57;1.30;;;1.20;;
6442;SDS011;3254;47.372;8.512;2022-09-03T15:01:01;1.90;;;1.40;;
6442;SDS011;3254;47.372;8.512;2022-09-03T15:03:39;1.80;;;1.70;;
6442;SDS011;3254;47.372;8.512;2022-09-03T15:11:48;3.10;;;1.20;;
6442;SDS011;3254;47.372;8.512;2022-09-03T15:20:02;1.47;;;1.37;;
6442;SDS011;3254;47.372;8.512;2022-09-03T15:33:45;1.20;;;1.20;;
6442;SDS011;3254;47.372;8.512;2022-09-03T15:36:39;1.17;;;1.07;;
6442;SDS011;3254;47.372;8.512;2022-09-03T15:39:12;2.53;;;1.70;;
6442;SDS011;3254;47.372;8.512;2022-09-03T15:41:57;1.77;;;1.67;;
6442;SDS011;3254;47.372;8.512;2022-09-03T15:44:26;2.60;;;1.40;;
6442;SDS011;3254;47.372;8.512;2022-09-03T15:47:08;1.93;;;1.27;;
6442;SDS011;3254;47.372;8.512;2022-09-03T15:49:46;1.10;;;1.00;;
6442;SDS011;3254;47.372;8.512;2022-09-03T15:52:27;1.87;;;1.60;;
6442;SDS011;3254;47.372;8.512;2022-09-03T15:57:38;2.60;;;2.03;;
6442;SDS011;3254;47.372;8.512;2022-09-03T16:00:18;2.57;;;1.33;;
6442;SDS011;3254;47.372;8.512;2022-09-03T16:02:47;2.97;;;1.63;;
6442;SDS011;3254;47.372;8.512;2022-09-03T16:08:24;2.20;;;1.77;;
6442;SDS011;3254;47.372;8.512;2022-09-03T16:11:04;1.83;;;1.73;;
6442;SDS011;3254;47.372;8.512;2022-09-03T16:16:26;3.73;;;2.67;;
6442;SDS011;3254;47.372;8.512;2022-09-03T16:19:10;2.60;;;2.40;;
6442;SDS011;3254;47.372;8.512;2022-09-03T16:24:32;3.87;;;2.23;;
6442;SDS011;3254;47.372;8.512;2022-09-03T16:29:56;2.30;;;2.20;;
6442;SDS011;3254;47.372;8.512;2022-09-03T16:35:40;2.43;;;1.90;;
6442;SDS011;3254;47.372;8.512;2022-09-03T16:38:16;2.60;;;2.47;;
6442;SDS011;3254;47.372;8.512;2022-09-03T16:44:19;8.73;;;2.17;;
6442;SDS011;3254;47.372;8.512;2022-09-03T16:52:58;2.77;;;2.50;;
6442;SDS011;3254;47.372;8.512;2022-09-03T16:55:49;2.90;;;2.70;;
6442;SDS011;3254;47.372;8.512;2022-09-03T16:58:24;2.63;;;2.43;;
6442;SDS011;3254;47.372;8.512;2022-09-03T17:01:29;3.10;;;2.13;;
6442;SDS011;3254;47.372;8.512;2022-09-03T17:15:43;3.20;;;3.00;;
6442;SDS011;3254;47.372;8.512;2022-09-03T17:24:26;2.60;;;2.40;;
6442;SDS011;3254;47.372;8.512;2022-09-03T17:29:54;2.80;;;2.60;;
6442;SDS011;3254;47.372;8.512;2022-09-03T17:39:03;3.20;;;2.90;;
6442;SDS011;3254;47.372;8.512;2022-09-03T17:42:16;3.00;;;2.60;;
6442;SDS011;3254;47.372;8.512;2022-09-03T17:45:07;3.90;;;3.60;;
6442;SDS011;3254;47.372;8.512;2022-09-03T17:51:03;3.70;;;3.23;;
6442;SDS011;3254;47.372;8.512;2022-09-03T17:59:58;3.20;;;2.90;;
6442;SDS011;3254;47.372;8.512;2022-09-03T18:04:50;3.10;;;2.90;;
6442;SDS011;3254;47.372;8.512;2022-09-03T18:07:32;4.20;;;3.77;;
6442;SDS011;3254;47.372;8.512;2022-09-03T18:10:18;5.03;;;4.40;;
6442;SDS011;3254;47.372;8.512;2022-09-03T18:15:54;3.90;;;3.53;;
6442;SDS011;3254;47.372;8.512;2022-09-03T18:18:27;6.80;;;3.60;;
6442;SDS011;3254;47.372;8.512;2022-09-03T18:21:05;4.80;;;4.27;;
6442;SDS011;3254;47.372;8.512;2022-09-03T18:26:55;4.50;;;4.13;;
6442;SDS011;3254;47.372;8.512;2022-09-03T18:30:08;6.20;;;4.17;;
6442;SDS011;3254;47.372;8.512;2022-09-03T18:32:55;4.77;;;3.63;;
6442;SDS011;3254;47.372;8.512;2022-09-03T18:35:39;7.60;;;6.90;;
6442;SDS011;3254;47.372;8.512;2022-09-03T18:38:28;7.83;;;5.83;;
6442;SDS011;3254;47.372;8.512;2022-09-03T18:47:09;4.70;;;4.30;;
6442;SDS011;3254;47.372;8.512;2022-09-03T18:53:36;6.80;;;5.00;;
6442;SDS011;3254;47.372;8.512;2022-09-03T18:56:48;5.53;;;4.33;;
6442;SDS011;3254;47.372;8.512;2022-09-03T18:59:54;4.10;;;3.80;;
6442;SDS011;3254;47.372;8.512;2022-09-03T19:11:35;2.97;;;2.63;;
6442;SDS011;3254;47.372;8.512;2022-09-03T19:14:28;4.37;;;3.30;;
6442;SDS011;3254;47.372;8.512;2022-09-03T19:23:01;5.80;;;3.70;;
6442;SDS011;3254;47.372;8.512;2022-09-03T19:25:46;4.07;;;3.30;;
6442;SDS011;3254;47.372;8.512;2022-09-03T19:28:30;4.37;;;3.40;;
6442;SDS011;3254;47.372;8.512;2022-09-03T19:31:27;9.87;;;3.60;;
6442;SDS011;3254;47.372;8.512;2022-09-03T19:41:31;3.20;;;2.60;;
6442;SDS011;3254;47.372;8.512;2022-09-03T19:47:31;3.40;;;2.60;;
6442;SDS011;3254;47.372;8.512;2022-09-03T19:50:34;3.37;;;3.07;;
6442;SDS011;3254;47.372;8.512;2022-09-03T19:53:21;3.40;;;3.10;;
6442;SDS011;3254;47.372;8.512;2022-09-03T19:56:10;3.70;;;2.83;;
6442;SDS011;3254;47.372;8.512;2022-09-03T19:59:05;3.13;;;2.93;;
6442;SDS011;3254;47.372;8.512;2022-09-03T20:02:03;3.50;;;3.20;;
6442;SDS011;3254;47.372;8.512;2022-09-03T20:04:58;3.20;;;2.90;;
6442;SDS011;3254;47.372;8.512;2022-09-03T20:07:44;2.60;;;2.50;;
6442;SDS011;3254;47.372;8.512;2022-09-03T20:10:32;3.43;;;3.00;;
6442;SDS011;3254;47.372;8.512;2022-09-03T20:15:57;2.90;;;2.60;;
6442;SDS011;3254;47.372;8.512;2022-09-03T20:35:49;4.37;;;2.90;;
6442;SDS011;3254;47.372;8.512;2022-09-03T20:38:28;3.50;;;3.23;;
6442;SDS011;3254;47.372;8.512;2022-09-03T20:46:53;3.23;;;3.00;;
6442;SDS011;3254;47.372;8.512;2022-09-03T20:49:52;3.70;;;3.37;;
6442;SDS011;3254;47.372;8.512;2022-09-03T20:52:45;3.90;;;3.60;;
6442;SDS011;3254;47.372;8.512;2022-09-03T20:55:19;3.47;;;3.23;;
6442;SDS011;3254;47.372;8.512;2022-09-03T21:00:57;5.17;;;3.33;;
6442;SDS011;3254;47.372;8.512;2022-09-03T21:03:29;4.80;;;2.90;;
6442;SDS011;3254;47.372;8.512;2022-09-03T21:09:19;3.07;;;2.87;;
6442;SDS011;3254;47.372;8.512;2022-09-03T21:15:06;3.40;;;3.00;;
6442;SDS011;3254;47.372;8.512;2022-09-03T21:23:22;3.30;;;3.07;;
6442;SDS011;3254;47.372;8.512;2022-09-03T21:28:38;3.20;;;3.00;;
6442;SDS011;3254;47.372;8.512;2022-09-03T21:33:49;9.33;;;3.03;;
6442;SDS011;3254;47.372;8.512;2022-09-03T21:38:56;2.33;;;2.23;;
6442;SDS011;3254;47.372;8.512;2022-09-03T21:41:54;4.50;;;2.93;;
6442;SDS011;3254;47.372;8.512;2022-09-03T21:47:18;3.83;;;2.83;;
6442;SDS011;3254;47.372;8.512;2022-09-03T21:53:01;3.50;;;3.10;;
6442;SDS011;3254;47.372;8.512;2022-09-03T21:58:17;3.10;;;2.90;;
6442;SDS011;3254;47.372;8.512;2022-09-03T22:01:10;4.93;;;2.90;;
6442;SDS011;3254;47.372;8.512;2022-09-03T22:03:41;4.53;;;3.10;;
6442;SDS011;3254;47.372;8.512;2022-09-03T22:06:09;2.83;;;2.63;;
6442;SDS011;3254;47.372;8.512;2022-09-03T22:12:01;5.67;;;2.90;;
6442;SDS011;3254;47.372;8.512;2022-09-03T22:14:39;2.47;;;2.30;;